EW6609 Weather Reports


time (UTC)temp
C
wind
direction
speed
KPH
gust
KPH
rain 1hr
cm
rain 24hr
cm
rain mn
cm
humidity
%
barometer
mb
20190420060327 25 248 1.6 8.0 0.00 0.00 0.00 41 1024.9
20190420053323 25 295 0.0 11.3 0.00 0.00 0.00 43 1025.0
20190420050324 25 264 6.4 9.7 0.00 0.00 0.00 43 1025.3
20190420043328 25 260 8.0 16.1 0.00 0.00 0.00 44 1025.5
20190420040329 25 249 6.4 9.7 0.00 0.00 0.00 45 1025.7
20190420033314 25 248 6.4 9.7 0.00 0.00 0.00 49 1026.0
20190420030320 24 248 4.8 9.7 0.00 0.00 0.00 54 1026.5
20190420023325 23 251 6.4 11.3 0.00 0.00 0.00 57 1027.1
20190420020327 22 265 6.4 9.7 0.00 0.00 0.00 60 1027.7
20190420013312 20 262 4.8 6.4 0.00 0.00 0.00 68 1028.3
20190420010318 18 264 4.8 8.0 0.00 0.00 0.00 74 1028.7
20190420003323 18 273 3.2 6.4 0.00 0.00 0.00 79 1029.1
20190420000329 16 92 1.6 6.4 0.00 0.00 0.00 85 1029.4
20190419233315 15 164 4.8 8.0 0.00 0.00 0.00 89 1029.7
20190419230321 15 135 3.2 11.3 0.00 0.00 0.00 90 1030.0
20190419223320 14 125 3.2 4.8 0.00 0.00 0.00 91 1029.8
20190419220326 13 125 1.6 4.8 0.00 0.00 0.00 92 1029.7
20190419213310 13 112 3.2 6.4 0.00 0.00 0.00 92 1029.5
20190419210316 13 123 0.0 3.2 0.00 0.00 0.00 91 1029.2
20190419203321 13 60 0.0 0.0 0.00 0.00 0.00 92 1028.9
20190419200328 12 60 0.0 0.0 0.00 0.00 0.00 92 1028.8
20190419193311 12 60 0.0 0.0 0.00 0.00 0.00 92 1028.8
20190419190318 12 60 0.0 0.0 0.00 0.00 0.00 93 1028.8
20190419183320 11 60 0.0 0.0 0.00 0.00 0.00 93 1028.7
20190419180327 11 60 0.0 0.0 0.00 0.00 0.00 95 1028.5
20190419173312 11 60 0.0 0.0 0.00 0.00 0.00 93 1028.3
20190419170319 11 59 0.0 0.0 0.00 0.00 0.00 92 1028.3
20190419163325 11 60 0.0 1.6 0.00 0.00 0.00 91 1028.7
20190419160312 12 60 0.0 0.0 0.00 0.00 0.00 88 1028.6
20190419153317 12 59 0.0 0.0 0.00 0.00 0.00 88 1028.7
20190419150321 12 60 0.0 0.0 0.00 0.00 0.00 87 1028.7
20190419143325 13 60 0.0 0.0 0.00 0.00 0.00 86 1028.7
20190419140311 13 60 0.0 0.0 0.00 0.00 0.00 84 1028.7
20190419133317 13 59 0.0 0.0 0.00 0.00 0.00 85 1028.8
20190419130325 13 60 0.0 0.0 0.00 0.00 0.00 84 1028.9
20190419123311 14 60 0.0 1.6 0.00 0.00 0.00 82 1029.0
20190419120318 15 60 0.0 1.6 0.00 0.00 0.00 80 1028.9
20190419113323 15 357 0.0 3.2 0.00 0.00 0.00 79 1029.0
20190419110325 15 54 0.0 0.0 0.00 0.00 0.00 78 1028.9
20190419103326 16 336 0.0 4.8 0.00 0.00 0.00 75 1028.7
20190419100330 17 52 0.0 0.0 0.00 0.00 0.00 71 1028.6
20190419093313 17 56 1.6 3.2 0.00 0.00 0.00 72 1028.3
20190419090315 18 279 0.0 0.0 0.00 0.00 0.00 68 1028.1
20190419083320 20 279 0.0 1.6 0.00 0.00 0.00 66 1028.0
20190419080324 21 279 0.0 0.0 0.00 0.00 0.00 59 1027.9
20190419073324 22 279 0.0 4.8 0.00 0.00 0.00 57 1027.8
20190419070329 23 298 3.2 6.4 0.00 0.00 0.00 53 1027.5
20190419063313 22 274 3.2 9.7 0.00 0.00 0.00 53 1027.4